Accueil
METAR-TAF:

METAR-TAF

Aéroports :

Curaçao, Antilles néerlandaises

Aéroport international de Curaçao

latitude: 12-12N, longitude: 068-58W, altitude: 9 m

Observation

Le bulletin a été fait il y a 1 heure et 9 minutes, à 23:00 UTC
Vent 11 kt de est
Température 28°C
Humidité 79%
Pression 1010 hPa
Visibilité 10 km ou plus
Quelques nuages à une hauteur de 1800 ft

METAR: TNCC 222300Z 09011KT 9999 FEW018 28/24 Q1010 NOSIG

Heure: 20:09 (00:09 UTC)

Prévision

Le bulletin a été fait il y a 2 heures et 27 minutes, à 21:42 UTC
Prévision valable du 23 à 00 UTC au 23 à 24 UTC
Vent 13 kt de est
Visibilité 10 km ou plus
Nuages épars à une hauteur de 2200 ft
Temporairement
du 23 à 00 UTC au 23 à 14 UTC
Nuages fragmentés à une hauteur de 1400 ft
Probabilité 30%
du 23 à 00 UTC au 23 à 14 UTC
Visibilité: 5000 m
averses de pluie

TAF: TNCC 222142Z 2300/2324 10013KT 9999 SCT022 TEMPO 2300/2314 BKN014 PROB30 2300/2314 5000 SHRA

Observations et prévisions météorologiques de plus de 4000 aéroports (messages METAR et TAF).

Les stations disponibles sont représentées par des disques jaunes et rouges sur la carte.

Passer la souris dessus pour voir le nom de la station.

Cliquer dessus pour voir les observations et prévisions météorologiques.

Pour changer de carte: cliquez sur les boutons verts avec une croix noire pour zoomer, sur le bouton vert avec un tiret pour effectuer un zoom arrière, ou sur les flèches vertes pour les cartes adjacentes.


METAR-TAF: